sensor_id;sensor_type;location;lat;lon;timestamp;P1;durP1;ratioP1;P2;durP2;ratioP2
70683;SDS011;58263;48.146;11.440;2023-03-01T00:01:14;21.05;;;9.98;;
70683;SDS011;58263;48.146;11.440;2023-03-01T00:03:44;18.80;;;9.43;;
70683;SDS011;58263;48.146;11.440;2023-03-01T00:06:09;16.20;;;9.23;;
70683;SDS011;58263;48.146;11.440;2023-03-01T00:08:35;15.15;;;8.88;;
70683;SDS011;58263;48.146;11.440;2023-03-01T00:11:05;15.07;;;8.90;;
70683;SDS011;58263;48.146;11.440;2023-03-01T00:13:42;17.65;;;9.75;;
70683;SDS011;58263;48.146;11.440;2023-03-01T00:16:09;16.33;;;9.10;;
70683;SDS011;58263;48.146;11.440;2023-03-01T00:18:37;17.80;;;9.55;;
70683;SDS011;58263;48.146;11.440;2023-03-01T00:21:03;21.08;;;9.63;;
70683;SDS011;58263;48.146;11.440;2023-03-01T00:23:30;17.08;;;9.27;;
70683;SDS011;58263;48.146;11.440;2023-03-01T00:25:55;16.23;;;9.60;;
70683;SDS011;58263;48.146;11.440;2023-03-01T00:28:21;16.63;;;9.13;;
70683;SDS011;58263;48.146;11.440;2023-03-01T00:30:46;22.00;;;9.87;;
70683;SDS011;58263;48.146;11.440;2023-03-01T00:33:12;18.60;;;8.77;;
70683;SDS011;58263;48.146;11.440;2023-03-01T00:35:37;17.17;;;10.27;;
70683;SDS011;58263;48.146;11.440;2023-03-01T00:38:03;19.23;;;9.73;;
70683;SDS011;58263;48.146;11.440;2023-03-01T00:40:29;18.05;;;9.48;;
70683;SDS011;58263;48.146;11.440;2023-03-01T00:42:57;15.95;;;9.27;;
70683;SDS011;58263;48.146;11.440;2023-03-01T00:45:22;19.10;;;9.73;;
70683;SDS011;58263;48.146;11.440;2023-03-01T00:47:49;20.35;;;10.27;;
70683;SDS011;58263;48.146;11.440;2023-03-01T00:50:15;17.73;;;8.95;;
70683;SDS011;58263;48.146;11.440;2023-03-01T00:52:41;19.75;;;10.00;;
70683;SDS011;58263;48.146;11.440;2023-03-01T00:55:07;19.87;;;9.97;;
70683;SDS011;58263;48.146;11.440;2023-03-01T00:57:32;18.40;;;9.85;;
70683;SDS011;58263;48.146;11.440;2023-03-01T00:59:58;20.38;;;9.98;;
70683;SDS011;58263;48.146;11.440;2023-03-01T01:02:23;17.65;;;9.95;;
70683;SDS011;58263;48.146;11.440;2023-03-01T01:04:49;18.27;;;9.57;;
70683;SDS011;58263;48.146;11.440;2023-03-01T01:07:14;18.15;;;9.80;;
70683;SDS011;58263;48.146;11.440;2023-03-01T01:09:40;18.55;;;9.18;;
70683;SDS011;58263;48.146;11.440;2023-03-01T01:12:06;18.27;;;9.23;;
70683;SDS011;58263;48.146;11.440;2023-03-01T01:14:32;16.38;;;9.05;;
70683;SDS011;58263;48.146;11.440;2023-03-01T01:16:57;18.80;;;10.27;;
70683;SDS011;58263;48.146;11.440;2023-03-01T01:19:23;19.97;;;9.73;;
70683;SDS011;58263;48.146;11.440;2023-03-01T01:21:49;17.85;;;9.43;;
70683;SDS011;58263;48.146;11.440;2023-03-01T01:24:15;18.73;;;10.32;;
70683;SDS011;58263;48.146;11.440;2023-03-01T01:26:41;15.63;;;8.70;;
70683;SDS011;58263;48.146;11.440;2023-03-01T01:29:07;16.73;;;9.73;;
70683;SDS011;58263;48.146;11.440;2023-03-01T01:31:34;16.17;;;9.95;;
70683;SDS011;58263;48.146;11.440;2023-03-01T01:34:01;18.50;;;9.82;;
70683;SDS011;58263;48.146;11.440;2023-03-01T01:36:28;18.77;;;9.30;;
70683;SDS011;58263;48.146;11.440;2023-03-01T01:38:54;18.05;;;9.75;;
70683;SDS011;58263;48.146;11.440;2023-03-01T01:41:20;19.05;;;9.48;;
70683;SDS011;58263;48.146;11.440;2023-03-01T01:43:48;14.52;;;8.55;;
70683;SDS011;58263;48.146;11.440;2023-03-01T01:46:33;14.60;;;9.15;;
70683;SDS011;58263;48.146;11.440;2023-03-01T01:49:04;18.08;;;9.85;;
70683;SDS011;58263;48.146;11.440;2023-03-01T01:51:36;15.60;;;9.38;;
70683;SDS011;58263;48.146;11.440;2023-03-01T01:54:08;18.17;;;9.70;;
70683;SDS011;58263;48.146;11.440;2023-03-01T01:56:37;16.35;;;9.07;;
70683;SDS011;58263;48.146;11.440;2023-03-01T01:59:05;20.33;;;11.10;;
70683;SDS011;58263;48.146;11.440;2023-03-01T02:01:30;20.35;;;9.82;;
70683;SDS011;58263;48.146;11.440;2023-03-01T02:03:56;17.17;;;9.63;;
70683;SDS011;58263;48.146;11.440;2023-03-01T02:06:43;18.67;;;9.52;;
70683;SDS011;58263;48.146;11.440;2023-03-01T02:09:15;16.95;;;9.48;;
70683;SDS011;58263;48.146;11.440;2023-03-01T02:11:43;21.05;;;10.02;;
70683;SDS011;58263;48.146;11.440;2023-03-01T02:14:09;15.38;;;9.35;;
70683;SDS011;58263;48.146;11.440;2023-03-01T02:16:34;17.35;;;9.13;;
70683;SDS011;58263;48.146;11.440;2023-03-01T02:19:00;16.95;;;9.75;;
70683;SDS011;58263;48.146;11.440;2023-03-01T02:21:43;21.23;;;9.65;;
70683;SDS011;58263;48.146;11.440;2023-03-01T02:24:24;18.13;;;9.73;;
70683;SDS011;58263;48.146;11.440;2023-03-01T02:27:07;23.25;;;10.35;;
70683;SDS011;58263;48.146;11.440;2023-03-01T02:29:34;18.73;;;9.45;;
70683;SDS011;58263;48.146;11.440;2023-03-01T02:32:00;17.63;;;9.70;;
70683;SDS011;58263;48.146;11.440;2023-03-01T02:34:28;16.23;;;8.65;;
70683;SDS011;58263;48.146;11.440;2023-03-01T02:39:31;15.75;;;9.32;;
70683;SDS011;58263;48.146;11.440;2023-03-01T02:42:01;15.82;;;8.93;;
70683;SDS011;58263;48.146;11.440;2023-03-01T02:44:28;16.77;;;8.60;;
70683;SDS011;58263;48.146;11.440;2023-03-01T02:46:55;17.77;;;9.38;;
70683;SDS011;58263;48.146;11.440;2023-03-01T02:49:23;16.38;;;9.18;;
70683;SDS011;58263;48.146;11.440;2023-03-01T02:57:11;16.58;;;9.60;;
70683;SDS011;58263;48.146;11.440;2023-03-01T02:59:37;16.38;;;9.00;;
70683;SDS011;58263;48.146;11.440;2023-03-01T03:02:08;18.92;;;9.98;;
70683;SDS011;58263;48.146;11.440;2023-03-01T03:04:45;19.48;;;9.63;;
70683;SDS011;58263;48.146;11.440;2023-03-01T03:07:11;15.50;;;9.75;;
70683;SDS011;58263;48.146;11.440;2023-03-01T03:09:36;16.92;;;10.35;;
70683;SDS011;58263;48.146;11.440;2023-03-01T03:12:02;17.30;;;9.63;;
70683;SDS011;58263;48.146;11.440;2023-03-01T03:14:27;13.93;;;8.80;;
70683;SDS011;58263;48.146;11.440;2023-03-01T03:16:52;18.53;;;9.67;;
70683;SDS011;58263;48.146;11.440;2023-03-01T03:19:18;18.43;;;10.03;;
70683;SDS011;58263;48.146;11.440;2023-03-01T03:21:44;18.08;;;9.27;;
70683;SDS011;58263;48.146;11.440;2023-03-01T03:24:09;18.23;;;8.85;;
70683;SDS011;58263;48.146;11.440;2023-03-01T03:26:35;17.20;;;9.53;;
70683;SDS011;58263;48.146;11.440;2023-03-01T03:29:00;16.92;;;9.38;;
70683;SDS011;58263;48.146;11.440;2023-03-01T03:31:26;16.73;;;9.30;;
70683;SDS011;58263;48.146;11.440;2023-03-01T03:33:52;20.17;;;9.88;;
70683;SDS011;58263;48.146;11.440;2023-03-01T03:36:19;14.35;;;9.52;;
70683;SDS011;58263;48.146;11.440;2023-03-01T03:38:46;18.35;;;9.48;;
70683;SDS011;58263;48.146;11.440;2023-03-01T03:41:12;18.43;;;9.93;;
70683;SDS011;58263;48.146;11.440;2023-03-01T03:43:38;17.10;;;9.88;;
70683;SDS011;58263;48.146;11.440;2023-03-01T03:46:05;18.88;;;10.43;;
70683;SDS011;58263;48.146;11.440;2023-03-01T03:48:35;15.60;;;9.45;;
70683;SDS011;58263;48.146;11.440;2023-03-01T03:51:02;18.08;;;9.18;;
70683;SDS011;58263;48.146;11.440;2023-03-01T03:53:30;19.15;;;9.82;;
70683;SDS011;58263;48.146;11.440;2023-03-01T03:55:56;15.88;;;9.27;;
70683;SDS011;58263;48.146;11.440;2023-03-01T03:58:22;19.33;;;9.60;;
70683;SDS011;58263;48.146;11.440;2023-03-01T04:00:49;14.50;;;9.05;;
70683;SDS011;58263;48.146;11.440;2023-03-01T04:03:17;19.23;;;9.98;;
70683;SDS011;58263;48.146;11.440;2023-03-01T04:05:43;18.08;;;8.98;;
70683;SDS011;58263;48.146;11.440;2023-03-01T04:08:09;15.85;;;9.30;;
70683;SDS011;58263;48.146;11.440;2023-03-01T04:10:36;16.27;;;9.15;;
70683;SDS011;58263;48.146;11.440;2023-03-01T04:13:04;24.80;;;10.30;;
70683;SDS011;58263;48.146;11.440;2023-03-01T04:15:31;17.35;;;10.00;;
70683;SDS011;58263;48.146;11.440;2023-03-01T04:17:58;17.10;;;9.15;;
70683;SDS011;58263;48.146;11.440;2023-03-01T04:20:25;18.30;;;10.13;;
70683;SDS011;58263;48.146;11.440;2023-03-01T04:22:52;19.13;;;9.82;;
70683;SDS011;58263;48.146;11.440;2023-03-01T04:25:22;18.38;;;10.10;;
70683;SDS011;58263;48.146;11.440;2023-03-01T04:27:48;17.65;;;9.60;;
70683;SDS011;58263;48.146;11.440;2023-03-01T04:30:13;18.50;;;10.32;;
70683;SDS011;58263;48.146;11.440;2023-03-01T04:32:39;16.92;;;9.60;;
70683;SDS011;58263;48.146;11.440;2023-03-01T04:35:04;18.33;;;8.90;;
70683;SDS011;58263;48.146;11.440;2023-03-01T04:37:29;18.83;;;9.70;;
70683;SDS011;58263;48.146;11.440;2023-03-01T04:39:55;16.08;;;9.35;;
70683;SDS011;58263;48.146;11.440;2023-03-01T04:42:20;18.20;;;9.60;;
70683;SDS011;58263;48.146;11.440;2023-03-01T04:44:45;19.88;;;10.88;;
70683;SDS011;58263;48.146;11.440;2023-03-01T04:47:11;17.03;;;9.37;;
70683;SDS011;58263;48.146;11.440;2023-03-01T04:49:36;18.30;;;9.77;;
70683;SDS011;58263;48.146;11.440;2023-03-01T04:52:02;18.17;;;10.30;;
70683;SDS011;58263;48.146;11.440;2023-03-01T04:54:29;19.35;;;9.90;;
70683;SDS011;58263;48.146;11.440;2023-03-01T04:56:55;15.50;;;9.45;;
70683;SDS011;58263;48.146;11.440;2023-03-01T04:59:20;20.63;;;10.32;;
70683;SDS011;58263;48.146;11.440;2023-03-01T05:01:51;17.42;;;10.13;;
70683;SDS011;58263;48.146;11.440;2023-03-01T05:04:20;18.38;;;9.80;;
70683;SDS011;58263;48.146;11.440;2023-03-01T05:06:46;19.63;;;10.32;;
70683;SDS011;58263;48.146;11.440;2023-03-01T05:09:11;17.50;;;10.10;;
70683;SDS011;58263;48.146;11.440;2023-03-01T05:11:37;18.20;;;9.13;;
70683;SDS011;58263;48.146;11.440;2023-03-01T05:14:03;20.85;;;9.63;;
70683;SDS011;58263;48.146;11.440;2023-03-01T05:16:29;14.32;;;9.00;;
70683;SDS011;58263;48.146;11.440;2023-03-01T05:18:56;19.23;;;8.68;;
70683;SDS011;58263;48.146;11.440;2023-03-01T05:21:21;17.20;;;9.38;;
70683;SDS011;58263;48.146;11.440;2023-03-01T05:23:47;16.27;;;9.20;;
70683;SDS011;58263;48.146;11.440;2023-03-01T05:26:12;17.47;;;9.67;;
70683;SDS011;58263;48.146;11.440;2023-03-01T05:28:38;19.77;;;10.18;;
70683;SDS011;58263;48.146;11.440;2023-03-01T05:31:05;16.67;;;8.98;;
70683;SDS011;58263;48.146;11.440;2023-03-01T05:33:35;17.40;;;10.15;;
70683;SDS011;58263;48.146;11.440;2023-03-01T05:36:02;19.15;;;10.27;;
70683;SDS011;58263;48.146;11.440;2023-03-01T05:38:27;22.98;;;10.50;;
70683;SDS011;58263;48.146;11.440;2023-03-01T05:40:53;19.25;;;8.98;;
70683;SDS011;58263;48.146;11.440;2023-03-01T05:43:18;18.13;;;10.02;;
70683;SDS011;58263;48.146;11.440;2023-03-01T05:45:44;15.23;;;9.10;;
70683;SDS011;58263;48.146;11.440;2023-03-01T05:48:10;18.92;;;10.85;;
70683;SDS011;58263;48.146;11.440;2023-03-01T05:50:37;17.70;;;9.52;;
70683;SDS011;58263;48.146;11.440;2023-03-01T05:53:05;18.50;;;9.98;;
70683;SDS011;58263;48.146;11.440;2023-03-01T05:55:33;17.65;;;9.63;;
70683;SDS011;58263;48.146;11.440;2023-03-01T05:57:59;20.60;;;10.70;;
70683;SDS011;58263;48.146;11.440;2023-03-01T06:00:25;15.73;;;9.13;;
70683;SDS011;58263;48.146;11.440;2023-03-01T06:02:53;17.20;;;9.32;;
70683;SDS011;58263;48.146;11.440;2023-03-01T06:05:19;20.25;;;10.82;;
70683;SDS011;58263;48.146;11.440;2023-03-01T06:07:44;15.43;;;9.13;;
70683;SDS011;58263;48.146;11.440;2023-03-01T06:10:10;18.83;;;9.70;;
70683;SDS011;58263;48.146;11.440;2023-03-01T06:12:37;18.80;;;10.10;;
70683;SDS011;58263;48.146;11.440;2023-03-01T06:15:03;17.02;;;9.10;;
70683;SDS011;58263;48.146;11.440;2023-03-01T06:17:31;20.35;;;10.77;;
70683;SDS011;58263;48.146;11.440;2023-03-01T06:19:58;19.70;;;10.00;;
70683;SDS011;58263;48.146;11.440;2023-03-01T06:22:23;18.67;;;10.13;;
70683;SDS011;58263;48.146;11.440;2023-03-01T06:24:49;18.13;;;9.82;;
70683;SDS011;58263;48.146;11.440;2023-03-01T06:27:14;19.85;;;10.98;;
70683;SDS011;58263;48.146;11.440;2023-03-01T06:29:40;16.50;;;9.23;;
70683;SDS011;58263;48.146;11.440;2023-03-01T06:32:06;19.13;;;10.65;;
70683;SDS011;58263;48.146;11.440;2023-03-01T06:34:32;18.05;;;10.00;;
70683;SDS011;58263;48.146;11.440;2023-03-01T06:36:58;21.55;;;10.20;;
70683;SDS011;58263;48.146;11.440;2023-03-01T06:39:24;17.70;;;9.57;;
70683;SDS011;58263;48.146;11.440;2023-03-01T06:41:49;17.30;;;9.73;;
70683;SDS011;58263;48.146;11.440;2023-03-01T06:44:14;18.17;;;10.10;;
70683;SDS011;58263;48.146;11.440;2023-03-01T06:46:40;17.87;;;9.93;;
70683;SDS011;58263;48.146;11.440;2023-03-01T06:49:05;22.17;;;10.40;;
70683;SDS011;58263;48.146;11.440;2023-03-01T06:51:34;21.00;;;10.02;;
70683;SDS011;58263;48.146;11.440;2023-03-01T06:54:00;18.67;;;9.57;;
70683;SDS011;58263;48.146;11.440;2023-03-01T06:56:26;22.75;;;10.35;;
70683;SDS011;58263;48.146;11.440;2023-03-01T06:58:51;17.67;;;10.32;;
70683;SDS011;58263;48.146;11.440;2023-03-01T07:01:16;18.63;;;9.63;;
70683;SDS011;58263;48.146;11.440;2023-03-01T07:03:41;17.70;;;10.30;;
70683;SDS011;58263;48.146;11.440;2023-03-01T07:06:09;18.02;;;10.35;;
70683;SDS011;58263;48.146;11.440;2023-03-01T07:08:34;20.45;;;9.82;;
70683;SDS011;58263;48.146;11.440;2023-03-01T07:11:00;17.17;;;9.03;;
70683;SDS011;58263;48.146;11.440;2023-03-01T07:13:27;22.77;;;10.75;;
70683;SDS011;58263;48.146;11.440;2023-03-01T07:15:53;18.38;;;9.63;;
70683;SDS011;58263;48.146;11.440;2023-03-01T07:18:18;20.67;;;10.90;;
70683;SDS011;58263;48.146;11.440;2023-03-01T07:20:43;21.27;;;10.97;;
70683;SDS011;58263;48.146;11.440;2023-03-01T07:23:10;18.77;;;10.45;;
70683;SDS011;58263;48.146;11.440;2023-03-01T07:25:35;18.73;;;10.63;;
70683;SDS011;58263;48.146;11.440;2023-03-01T07:28:00;20.90;;;9.73;;
70683;SDS011;58263;48.146;11.440;2023-03-01T07:30:26;20.08;;;10.10;;
70683;SDS011;58263;48.146;11.440;2023-03-01T07:32:53;21.02;;;10.85;;
70683;SDS011;58263;48.146;11.440;2023-03-01T07:35:20;23.33;;;10.43;;
70683;SDS011;58263;48.146;11.440;2023-03-01T07:37:46;26.55;;;11.02;;
70683;SDS011;58263;48.146;11.440;2023-03-01T07:40:11;19.13;;;10.20;;
70683;SDS011;58263;48.146;11.440;2023-03-01T07:42:37;21.52;;;10.65;;
70683;SDS011;58263;48.146;11.440;2023-03-01T07:45:03;19.50;;;9.68;;
70683;SDS011;58263;48.146;11.440;2023-03-01T07:47:29;22.52;;;11.32;;
70683;SDS011;58263;48.146;11.440;2023-03-01T07:49:54;18.42;;;10.13;;
70683;SDS011;58263;48.146;11.440;2023-03-01T07:52:20;21.43;;;10.23;;
70683;SDS011;58263;48.146;11.440;2023-03-01T07:54:45;19.20;;;9.90;;
70683;SDS011;58263;48.146;11.440;2023-03-01T07:57:10;20.37;;;10.50;;
70683;SDS011;58263;48.146;11.440;2023-03-01T07:59:36;23.13;;;10.95;;
70683;SDS011;58263;48.146;11.440;2023-03-01T08:02:01;20.93;;;10.50;;
70683;SDS011;58263;48.146;11.440;2023-03-01T08:04:27;23.60;;;11.90;;
70683;SDS011;58263;48.146;11.440;2023-03-01T08:06:54;20.88;;;11.18;;
70683;SDS011;58263;48.146;11.440;2023-03-01T08:09:20;23.15;;;10.77;;
70683;SDS011;58263;48.146;11.440;2023-03-01T08:11:46;21.50;;;10.10;;
70683;SDS011;58263;48.146;11.440;2023-03-01T08:14:11;25.75;;;10.88;;
70683;SDS011;58263;48.146;11.440;2023-03-01T08:16:37;22.42;;;11.35;;
70683;SDS011;58263;48.146;11.440;2023-03-01T08:19:06;18.83;;;9.38;;
70683;SDS011;58263;48.146;11.440;2023-03-01T08:21:32;17.48;;;9.82;;
70683;SDS011;58263;48.146;11.440;2023-03-01T08:23:59;20.85;;;9.75;;
70683;SDS011;58263;48.146;11.440;2023-03-01T08:26:25;21.42;;;10.70;;
70683;SDS011;58263;48.146;11.440;2023-03-01T08:28:50;20.37;;;10.40;;
70683;SDS011;58263;48.146;11.440;2023-03-01T08:31:20;17.05;;;10.30;;
70683;SDS011;58263;48.146;11.440;2023-03-01T08:33:48;21.67;;;10.82;;
70683;SDS011;58263;48.146;11.440;2023-03-01T08:36:20;19.85;;;10.60;;
70683;SDS011;58263;48.146;11.440;2023-03-01T08:38:46;23.05;;;11.00;;
70683;SDS011;58263;48.146;11.440;2023-03-01T08:41:12;24.25;;;11.10;;
70683;SDS011;58263;48.146;11.440;2023-03-01T08:43:38;19.27;;;10.52;;
70683;SDS011;58263;48.146;11.440;2023-03-01T08:46:03;20.60;;;10.30;;
70683;SDS011;58263;48.146;11.440;2023-03-01T08:48:29;18.83;;;10.90;;
70683;SDS011;58263;48.146;11.440;2023-03-01T08:50:54;21.27;;;10.65;;
70683;SDS011;58263;48.146;11.440;2023-03-01T08:53:20;20.33;;;11.02;;
70683;SDS011;58263;48.146;11.440;2023-03-01T08:55:45;20.20;;;10.87;;
70683;SDS011;58263;48.146;11.440;2023-03-01T08:58:11;19.73;;;11.40;;
70683;SDS011;58263;48.146;11.440;2023-03-01T09:00:36;18.53;;;9.90;;
70683;SDS011;58263;48.146;11.440;2023-03-01T09:03:01;18.50;;;9.83;;
70683;SDS011;58263;48.146;11.440;2023-03-01T09:05:27;21.40;;;10.80;;
70683;SDS011;58263;48.146;11.440;2023-03-01T09:07:52;19.93;;;11.03;;
70683;SDS011;58263;48.146;11.440;2023-03-01T09:10:17;19.10;;;10.33;;
70683;SDS011;58263;48.146;11.440;2023-03-01T09:12:43;20.67;;;9.75;;
70683;SDS011;58263;48.146;11.440;2023-03-01T09:15:08;19.00;;;11.10;;
70683;SDS011;58263;48.146;11.440;2023-03-01T09:17:34;21.77;;;10.95;;
70683;SDS011;58263;48.146;11.440;2023-03-01T09:19:59;20.60;;;10.57;;
70683;SDS011;58263;48.146;11.440;2023-03-01T09:22:25;20.97;;;10.93;;
70683;SDS011;58263;48.146;11.440;2023-03-01T09:24:50;20.08;;;10.80;;
70683;SDS011;58263;48.146;11.440;2023-03-01T09:27:15;24.73;;;10.83;;
70683;SDS011;58263;48.146;11.440;2023-03-01T09:29:43;22.75;;;12.10;;
70683;SDS011;58263;48.146;11.440;2023-03-01T09:32:09;22.35;;;11.27;;
70683;SDS011;58263;48.146;11.440;2023-03-01T09:34:34;21.35;;;11.60;;
70683;SDS011;58263;48.146;11.440;2023-03-01T09:37:20;22.90;;;10.90;;
70683;SDS011;58263;48.146;11.440;2023-03-01T09:39:45;22.20;;;12.20;;
70683;SDS011;58263;48.146;11.440;2023-03-01T09:42:11;25.10;;;11.10;;
70683;SDS011;58263;48.146;11.440;2023-03-01T09:45:21;21.60;;;10.90;;
70683;SDS011;58263;48.146;11.440;2023-03-01T09:47:30;23.45;;;11.20;;
70683;SDS011;58263;48.146;11.440;2023-03-01T09:52:29;22.97;;;11.37;;
70683;SDS011;58263;48.146;11.440;2023-03-01T09:54:57;18.27;;;10.15;;
70683;SDS011;58263;48.146;11.440;2023-03-01T10:02:42;23.63;;;11.00;;
70683;SDS011;58263;48.146;11.440;2023-03-01T10:10:38;21.98;;;11.55;;
70683;SDS011;58263;48.146;11.440;2023-03-01T10:13:19;18.02;;;10.35;;
70683;SDS011;58263;48.146;11.440;2023-03-01T10:15:56;21.13;;;10.73;;
70683;SDS011;58263;48.146;11.440;2023-03-01T10:18:26;20.75;;;11.27;;
70683;SDS011;58263;48.146;11.440;2023-03-01T10:21:01;25.60;;;11.65;;
70683;SDS011;58263;48.146;11.440;2023-03-01T10:23:32;21.83;;;10.82;;
70683;SDS011;58263;48.146;11.440;2023-03-01T10:28:54;20.50;;;10.57;;
70683;SDS011;58263;48.146;11.440;2023-03-01T10:31:30;16.77;;;9.95;;
70683;SDS011;58263;48.146;11.440;2023-03-01T10:34:21;19.30;;;10.23;;
70683;SDS011;58263;48.146;11.440;2023-03-01T10:36:52;18.95;;;9.98;;
70683;SDS011;58263;48.146;11.440;2023-03-01T10:39:22;19.35;;;11.25;;
70683;SDS011;58263;48.146;11.440;2023-03-01T10:44:40;18.70;;;10.82;;
70683;SDS011;58263;48.146;11.440;2023-03-01T10:47:08;19.30;;;10.75;;
70683;SDS011;58263;48.146;11.440;2023-03-01T10:49:52;20.55;;;10.85;;
70683;SDS011;58263;48.146;11.440;2023-03-01T10:52:18;19.30;;;10.82;;
70683;SDS011;58263;48.146;11.440;2023-03-01T10:54:59;19.48;;;10.05;;
70683;SDS011;58263;48.146;11.440;2023-03-01T10:57:29;18.95;;;10.95;;
70683;SDS011;58263;48.146;11.440;2023-03-01T11:00:14;17.17;;;10.65;;
70683;SDS011;58263;48.146;11.440;2023-03-01T11:02:48;20.75;;;11.57;;
70683;SDS011;58263;48.146;11.440;2023-03-01T11:05:28;15.75;;;10.35;;
70683;SDS011;58263;48.146;11.440;2023-03-01T11:07:56;19.95;;;11.60;;
70683;SDS011;58263;48.146;11.440;2023-03-01T11:12:52;21.63;;;11.95;;
70683;SDS011;58263;48.146;11.440;2023-03-01T11:15:36;18.70;;;11.65;;
70683;SDS011;58263;48.146;11.440;2023-03-01T11:18:02;16.42;;;10.60;;
70683;SDS011;58263;48.146;11.440;2023-03-01T11:20:32;16.95;;;11.43;;
70683;SDS011;58263;48.146;11.440;2023-03-01T11:23:02;20.40;;;12.93;;
70683;SDS011;58263;48.146;11.440;2023-03-01T11:25:33;18.35;;;12.77;;
70683;SDS011;58263;48.146;11.440;2023-03-01T11:28:01;15.23;;;12.77;;
70683;SDS011;58263;48.146;11.440;2023-03-01T11:30:32;18.50;;;13.77;;
70683;SDS011;58263;48.146;11.440;2023-03-01T11:36:05;16.75;;;13.45;;
70683;SDS011;58263;48.146;11.440;2023-03-01T11:38:40;15.55;;;12.75;;
70683;SDS011;58263;48.146;11.440;2023-03-01T11:44:11;17.73;;;13.75;;
70683;SDS011;58263;48.146;11.440;2023-03-01T11:46:49;16.30;;;12.65;;
70683;SDS011;58263;48.146;11.440;2023-03-01T11:57:51;15.80;;;13.07;;
70683;SDS011;58263;48.146;11.440;2023-03-01T12:00:48;20.38;;;13.75;;
70683;SDS011;58263;48.146;11.440;2023-03-01T12:06:38;18.35;;;13.13;;
70683;SDS011;58263;48.146;11.440;2023-03-01T12:18:32;18.27;;;13.30;;
70683;SDS011;58263;48.146;11.440;2023-03-01T12:21:21;15.65;;;12.98;;
70683;SDS011;58263;48.146;11.440;2023-03-01T12:27:16;14.10;;;12.25;;
70683;SDS011;58263;48.146;11.440;2023-03-01T12:38:46;17.13;;;13.25;;
70683;SDS011;58263;48.146;11.440;2023-03-01T12:41:37;16.35;;;12.85;;
70683;SDS011;58263;48.146;11.440;2023-03-01T12:44:30;18.67;;;13.77;;
70683;SDS011;58263;48.146;11.440;2023-03-01T12:50:04;16.55;;;13.25;;
70683;SDS011;58263;48.146;11.440;2023-03-01T12:52:42;22.05;;;14.20;;
70683;SDS011;58263;48.146;11.440;2023-03-01T12:58:13;17.23;;;13.93;;
70683;SDS011;58263;48.146;11.440;2023-03-01T13:01:03;21.38;;;15.55;;
70683;SDS011;58263;48.146;11.440;2023-03-01T13:09:24;19.55;;;13.90;;
70683;SDS011;58263;48.146;11.440;2023-03-01T13:20:51;18.00;;;13.65;;
70683;SDS011;58263;48.146;11.440;2023-03-01T13:33:48;17.38;;;13.52;;
70683;SDS011;58263;48.146;11.440;2023-03-01T13:36:45;18.73;;;13.73;;
70683;SDS011;58263;48.146;11.440;2023-03-01T13:39:04;18.60;;;14.00;;
70683;SDS011;58263;48.146;11.440;2023-03-01T13:41:52;18.73;;;13.95;;
70683;SDS011;58263;48.146;11.440;2023-03-01T13:44:34;18.35;;;14.20;;
70683;SDS011;58263;48.146;11.440;2023-03-01T13:49:42;18.33;;;13.07;;
70683;SDS011;58263;48.146;11.440;2023-03-01T14:00:44;20.00;;;13.23;;
70683;SDS011;58263;48.146;11.440;2023-03-01T14:03:10;21.40;;;13.98;;
70683;SDS011;58263;48.146;11.440;2023-03-01T14:05:39;19.52;;;13.57;;
70683;SDS011;58263;48.146;11.440;2023-03-01T14:08:13;17.75;;;13.13;;
70683;SDS011;58263;48.146;11.440;2023-03-01T14:10:51;16.63;;;13.10;;
70683;SDS011;58263;48.146;11.440;2023-03-01T14:16:08;18.40;;;13.45;;
70683;SDS011;58263;48.146;11.440;2023-03-01T14:21:31;21.20;;;13.95;;
70683;SDS011;58263;48.146;11.440;2023-03-01T14:23:56;20.53;;;13.83;;
70683;SDS011;58263;48.146;11.440;2023-03-01T14:26:22;19.33;;;13.15;;
70683;SDS011;58263;48.146;11.440;2023-03-01T14:28:49;17.15;;;12.75;;
70683;SDS011;58263;48.146;11.440;2023-03-01T14:34:02;20.00;;;13.27;;
70683;SDS011;58263;48.146;11.440;2023-03-01T14:36:29;18.55;;;12.40;;
70683;SDS011;58263;48.146;11.440;2023-03-01T14:41:29;18.58;;;11.57;;
70683;SDS011;58263;48.146;11.440;2023-03-01T14:43:59;19.90;;;12.52;;
70683;SDS011;58263;48.146;11.440;2023-03-01T14:46:40;18.83;;;12.35;;
70683;SDS011;58263;48.146;11.440;2023-03-01T14:49:11;22.45;;;12.10;;
70683;SDS011;58263;48.146;11.440;2023-03-01T14:51:42;19.00;;;12.68;;
70683;SDS011;58263;48.146;11.440;2023-03-01T14:56:52;18.20;;;11.48;;
70683;SDS011;58263;48.146;11.440;2023-03-01T14:59:22;18.90;;;11.57;;
70683;SDS011;58263;48.146;11.440;2023-03-01T15:01:49;18.30;;;12.02;;
70683;SDS011;58263;48.146;11.440;2023-03-01T15:04:16;15.90;;;11.20;;
70683;SDS011;58263;48.146;11.440;2023-03-01T15:06:43;17.73;;;11.88;;
70683;SDS011;58263;48.146;11.440;2023-03-01T15:09:12;19.67;;;11.70;;
70683;SDS011;58263;48.146;11.440;2023-03-01T15:11:43;17.38;;;11.43;;
70683;SDS011;58263;48.146;11.440;2023-03-01T15:14:27;19.77;;;11.32;;
70683;SDS011;58263;48.146;11.440;2023-03-01T15:17:22;18.20;;;10.75;;
70683;SDS011;58263;48.146;11.440;2023-03-01T15:19:55;16.45;;;10.20;;
70683;SDS011;58263;48.146;11.440;2023-03-01T15:22:20;17.13;;;11.40;;
70683;SDS011;58263;48.146;11.440;2023-03-01T15:24:48;20.20;;;10.80;;
70683;SDS011;58263;48.146;11.440;2023-03-01T15:27:15;20.60;;;10.80;;
70683;SDS011;58263;48.146;11.440;2023-03-01T15:29:47;14.73;;;10.18;;
70683;SDS011;58263;48.146;11.440;2023-03-01T15:32:39;15.65;;;9.70;;
70683;SDS011;58263;48.146;11.440;2023-03-01T15:40:58;19.40;;;10.25;;
70683;SDS011;58263;48.146;11.440;2023-03-01T15:46:02;18.05;;;10.25;;
70683;SDS011;58263;48.146;11.440;2023-03-01T15:48:29;16.27;;;10.05;;
70683;SDS011;58263;48.146;11.440;2023-03-01T15:50:55;16.58;;;9.25;;
70683;SDS011;58263;48.146;11.440;2023-03-01T15:53:23;17.00;;;10.30;;
70683;SDS011;58263;48.146;11.440;2023-03-01T15:55:48;17.73;;;10.20;;
70683;SDS011;58263;48.146;11.440;2023-03-01T15:58:16;16.88;;;10.15;;
70683;SDS011;58263;48.146;11.440;2023-03-01T16:00:44;17.30;;;9.98;;
70683;SDS011;58263;48.146;11.440;2023-03-01T16:03:11;19.55;;;9.70;;
70683;SDS011;58263;48.146;11.440;2023-03-01T16:05:36;17.50;;;10.40;;
70683;SDS011;58263;48.146;11.440;2023-03-01T16:08:03;16.33;;;10.23;;
70683;SDS011;58263;48.146;11.440;2023-03-01T16:10:33;22.17;;;10.38;;
70683;SDS011;58263;48.146;11.440;2023-03-01T16:12:59;18.65;;;9.75;;
70683;SDS011;58263;48.146;11.440;2023-03-01T16:15:26;20.53;;;9.90;;
70683;SDS011;58263;48.146;11.440;2023-03-01T16:17:53;15.85;;;8.88;;
70683;SDS011;58263;48.146;11.440;2023-03-01T16:20:19;16.60;;;9.68;;
70683;SDS011;58263;48.146;11.440;2023-03-01T16:22:45;16.73;;;10.52;;
70683;SDS011;58263;48.146;11.440;2023-03-01T16:25:11;17.38;;;9.10;;
70683;SDS011;58263;48.146;11.440;2023-03-01T16:27:37;16.45;;;9.73;;
70683;SDS011;58263;48.146;11.440;2023-03-01T16:30:04;18.25;;;9.25;;
70683;SDS011;58263;48.146;11.440;2023-03-01T16:32:30;17.60;;;9.30;;
70683;SDS011;58263;48.146;11.440;2023-03-01T16:34:56;17.90;;;9.73;;